Archiv-/Tagesdaten

--Timestamp---	Temp	Chill	HIndex	Humid	Dewpt	 Wind 	HiWind	WindDir	Rain 	Barom	Solar	 ET  	 UV 
--------------	----	-----	------	-----	-----	------	------	-------	-----	-----	-----	-----	----
20100908 00:00	11.7	11.7	11.7	87	9.6	5	10	112	0.0	1005.3	0	0.025	0.0
20100908 00:05	11.7	11.7	11.7	87	9.6	5	10	90	0.0	1005.2	0	0.000	0.0
20100908 00:10	11.6	11.6	11.6	88	9.7	6	11	90	0.0	1005.1	0	0.000	0.0
20100908 00:15	11.6	11.6	11.6	88	9.6	3	11	90	0.0	1005.1	0	0.000	0.0
20100908 00:20	11.5	11.5	11.5	88	9.6	5	8	112	0.0	1005.1	0	0.000	0.0
20100908 00:25	11.4	11.4	11.4	88	9.5	3	6	112	0.0	1005.2	0	0.000	0.0
20100908 00:30	11.4	11.4	11.4	88	9.5	3	10	68	0.0	1005.2	0	0.000	0.0
20100908 00:35	11.3	11.3	11.3	88	9.4	5	8	68	0.0	1005.1	0	0.000	0.0
20100908 00:40	11.3	11.3	11.3	88	9.4	5	11	90	0.0	1005.1	0	0.000	0.0
20100908 00:45	11.3	11.3	11.3	88	9.4	3	8	90	0.0	1005.1	0	0.000	0.0
20100908 00:50	11.2	11.2	11.2	88	9.3	5	11	112	0.0	1005.1	0	0.000	0.0
20100908 00:55	11.2	11.2	11.2	88	9.3	3	10	112	0.0	1005.2	0	0.000	0.0
20100908 01:00	11.2	11.2	11.2	88	9.3	3	10	112	0.0	1005.1	0	0.000	0.0
20100908 01:05	11.1	11.1	11.1	88	9.2	3	10	68	0.0	1004.8	0	0.000	0.0
20100908 01:10	11.1	11.1	11.1	88	9.1	5	11	68	0.0	1004.8	0	0.000	0.0
20100908 01:15	10.9	10.9	10.9	89	9.2	3	8	68	0.0	1004.8	0	0.000	0.0
20100908 01:20	10.9	10.9	10.9	89	9.1	3	8	135	0.0	1004.7	0	0.000	0.0
20100908 01:25	10.8	10.8	10.8	89	9.1	3	10	68	0.0	1004.7	0	0.000	0.0
20100908 01:30	10.8	10.8	10.8	89	9.0	2	8	135	0.0	1004.7	0	0.000	0.0
20100908 01:35	10.7	10.7	10.7	89	9.0	5	11	90	0.0	1004.6	0	0.000	0.0
20100908 01:40	10.7	10.7	10.7	89	9.0	5	10	112	0.0	1004.7	0	0.000	0.0
20100908 01:45	10.7	10.7	10.7	89	9.0	3	10	135	0.0	1004.8	0	0.000	0.0
20100908 01:50	10.7	10.7	10.7	89	8.9	3	6	90	0.0	1004.7	0	0.000	0.0
20100908 01:55	10.7	10.7	10.7	89	8.9	3	6	112	0.0	1004.7	0	0.000	0.0
20100908 02:00	10.6	10.6	10.6	89	8.9	5	10	112	0.0	1004.6	0	0.000	0.0
20100908 02:05	10.6	10.6	10.6	90	9.0	2	8	135	0.0	1004.6	0	0.000	0.0
20100908 02:10	10.6	10.6	10.6	90	9.0	3	8	135	0.0	1004.7	0	0.000	0.0
20100908 02:15	10.6	10.6	10.6	90	9.0	3	8	135	0.0	1004.5	0	0.000	0.0
20100908 02:20	10.7	10.7	10.7	90	9.1	3	6	135	0.0	1004.4	0	0.000	0.0
20100908 02:25	10.7	10.7	10.7	90	9.1	5	11	135	0.0	1004.4	0	0.000	0.0
20100908 02:30	10.8	10.8	10.8	90	9.2	3	10	112	0.0	1004.2	0	0.000	0.0
20100908 02:35	10.8	10.8	10.8	90	9.2	3	10	90	0.0	1004.2	0	0.000	0.0
20100908 02:40	10.8	10.8	10.8	90	9.3	3	8	112	0.0	1004.2	0	0.000	0.0
20100908 02:45	10.8	10.8	10.8	90	9.3	5	10	112	0.0	1004.2	0	0.000	0.0
20100908 02:50	10.8	10.8	10.8	90	9.3	3	11	112	0.0	1004.2	0	0.000	0.0
20100908 02:55	10.9	10.9	10.9	90	9.3	5	10	112	0.0	1004.2	0	0.000	0.0
20100908 03:00	10.9	10.9	10.9	90	9.3	8	18	112	0.0	1004.2	0	0.000	0.0
20100908 03:05	10.9	10.9	10.9	90	9.3	5	10	90	0.0	1004.1	0	0.000	0.0
20100908 03:10	10.9	10.9	10.9	90	9.3	6	14	112	0.0	1004.2	0	0.000	0.0
20100908 03:15	10.9	10.9	10.9	90	9.3	6	14	112	0.0	1004.2	0	0.000	0.0
20100908 03:20	10.9	10.9	10.9	90	9.3	6	11	135	0.0	1004.1	0	0.000	0.0
20100908 03:25	10.9	10.9	10.9	90	9.3	5	8	135	0.0	1004.0	0	0.000	0.0
20100908 03:30	10.9	10.9	10.9	90	9.3	6	11	135	0.0	1004.2	0	0.000	0.0
20100908 03:35	10.9	10.9	10.9	90	9.3	5	10	135	0.0	1004.2	0	0.000	0.0
20100908 03:40	10.9	10.9	10.9	90	9.3	2	6	135	0.0	1004.2	0	0.000	0.0
20100908 03:45	10.9	10.9	10.9	90	9.3	5	14	112	0.0	1004.0	0	0.000	0.0
20100908 03:50	10.8	10.8	10.8	90	9.3	6	14	90	0.0	1003.8	0	0.000	0.0
20100908 03:55	10.8	10.8	10.8	90	9.3	8	18	135	0.0	1003.8	0	0.000	0.0
20100908 04:00	10.8	10.8	10.8	91	9.4	5	11	112	0.0	1003.8	0	0.000	0.0
20100908 04:05	10.8	10.8	10.8	91	9.4	10	18	112	0.0	1003.8	0	0.000	0.0
20100908 04:10	10.7	10.7	10.7	91	9.3	10	21	135	0.0	1003.7	0	0.000	0.0
20100908 04:15	10.7	10.7	10.7	91	9.3	8	21	112	0.0	1003.7	0	0.000	0.0
20100908 04:20	10.7	10.7	10.7	91	9.3	11	21	112	0.0	1003.9	0	0.000	0.0
20100908 04:25	10.7	10.7	10.7	91	9.3	6	14	135	0.0	1003.8	0	0.000	0.0
20100908 04:30	10.7	10.7	10.7	91	9.3	10	18	112	0.0	1003.9	0	0.000	0.0
20100908 04:35	10.7	10.7	10.7	91	9.3	8	16	112	0.0	1003.9	0	0.000	0.0
20100908 04:40	10.7	10.7	10.7	91	9.3	11	18	112	0.0	1003.8	0	0.000	0.0
20100908 04:45	10.7	10.7	10.7	91	9.3	6	18	135	0.0	1003.7	0	0.000	0.0
20100908 04:50	10.7	10.7	10.7	91	9.3	10	19	112	0.0	1003.5	0	0.000	0.0
20100908 04:55	10.7	10.7	10.7	92	9.4	6	13	112	0.0	1003.2	0	0.000	0.0
20100908 05:00	10.7	10.7	10.7	92	9.4	6	11	90	0.0	1003.2	0	0.000	0.0
20100908 05:05	10.7	10.7	10.7	92	9.4	8	18	135	0.0	1003.5	0	0.000	0.0
20100908 05:10	10.7	10.7	10.7	92	9.4	6	16	135	0.0	1003.5	0	0.000	0.0
20100908 05:15	10.7	10.7	10.7	92	9.4	6	11	90	0.0	1003.2	0	0.000	0.0
20100908 05:20	10.7	10.7	10.7	92	9.4	6	16	112	0.0	1003.2	0	0.000	0.0
20100908 05:25	10.6	10.6	10.6	92	9.4	8	14	112	0.0	1003.3	0	0.000	0.0
20100908 05:30	10.6	10.6	10.6	92	9.4	8	19	112	0.0	1003.4	0	0.000	0.0
20100908 05:35	10.6	10.6	10.6	92	9.4	8	19	90	0.0	1003.2	0	0.000	0.0
20100908 05:40	10.6	10.6	10.6	92	9.4	8	18	135	0.0	1003.1	0	0.000	0.0
20100908 05:45	10.6	10.6	10.6	92	9.4	6	16	112	0.0	1003.2	0	0.000	0.0
20100908 05:50	10.6	10.6	10.6	92	9.4	6	11	112	0.0	1003.3	0	0.000	0.0
20100908 05:55	10.6	10.6	10.6	92	9.4	6	19	112	0.0	1003.2	0	0.000	0.0
20100908 06:00	10.6	10.6	10.6	92	9.4	10	21	90	0.0	1003.1	0	0.000	0.0
20100908 06:05	10.6	10.6	10.6	92	9.4	6	11	90	0.0	1003.1	0	0.000	0.0
20100908 06:10	10.6	10.6	10.6	92	9.4	8	16	112	0.0	1003.3	0	0.000	0.0
20100908 06:15	10.6	10.6	10.6	92	9.4	8	18	135	0.0	1003.5	0	0.000	0.0
20100908 06:20	10.7	10.7	10.7	92	9.4	6	16	112	0.0	1003.5	0	0.000	0.0
20100908 06:25	10.7	10.7	10.7	93	9.6	6	11	135	0.0	1003.4	0	0.000	0.0
20100908 06:30	10.7	10.7	10.7	93	9.6	5	10	135	0.0	1003.5	0	0.000	0.0
20100908 06:35	10.7	10.7	10.7	93	9.6	2	6	158	0.0	1003.6	0	0.000	0.0
20100908 06:40	10.7	10.7	10.7	93	9.6	2	6	158	0.0	1003.5	0	0.000	0.0
20100908 06:45	10.7	10.7	10.7	93	9.6	3	8	158	0.0	1003.6	0	0.000	0.0
20100908 06:50	10.7	10.7	10.7	92	9.5	5	8	135	0.0	1003.7	4	0.000	0.0
20100908 06:55	10.7	10.7	10.7	93	9.6	3	10	135	0.0	1003.6	8	0.000	0.0
20100908 07:00	10.7	10.7	10.7	92	9.5	5	11	135	0.0	1003.6	9	0.000	0.0
20100908 07:05	10.8	10.8	10.8	92	9.5	5	11	112	0.0	1003.7	10	0.000	0.0
20100908 07:10	10.8	10.8	10.8	92	9.5	2	6	68	0.0	1003.7	11	0.000	0.0
20100908 07:15	10.8	10.8	10.8	92	9.6	3	6	68	0.0	1003.7	13	0.000	0.0
20100908 07:20	10.8	10.8	10.8	92	9.5	3	10	68	0.0	1003.7	12	0.000	0.0
20100908 07:25	10.8	10.8	10.8	92	9.6	6	11	90	0.0	1003.6	14	0.000	0.0
20100908 07:30	10.8	10.8	10.8	92	9.6	6	14	90	0.0	1003.6	20	0.000	0.0
20100908 07:35	10.9	10.9	10.9	92	9.6	5	10	135	0.0	1003.6	21	0.000	0.0
20100908 07:40	10.9	10.9	10.9	92	9.6	6	11	135	0.0	1003.5	26	0.000	0.0
20100908 07:45	10.9	10.9	10.9	92	9.6	6	14	112	0.0	1003.6	31	0.000	0.0
20100908 07:50	10.9	10.9	10.9	92	9.6	8	18	135	0.0	1003.6	34	0.000	0.0
20100908 07:55	10.9	10.9	10.9	92	9.7	5	11	90	0.0	1003.5	33	0.000	0.0
20100908 08:00	10.9	10.9	10.9	92	9.6	6	14	90	0.0	1003.5	39	0.025	0.0
20100908 08:05	10.9	10.9	10.9	92	9.6	8	18	112	0.0	1003.4	52	0.000	0.0
20100908 08:10	10.9	10.9	10.9	92	9.7	8	18	112	0.0	1003.3	63	0.000	0.0
20100908 08:15	10.9	10.9	10.9	92	9.7	10	19	135	0.0	1003.3	71	0.000	0.0
20100908 08:20	11.0	11.0	11.0	91	9.6	10	18	112	0.0	1003.2	76	0.000	0.0
20100908 08:25	11.0	11.0	11.0	91	9.6	10	21	112	0.0	1003.1	91	0.000	0.0
20100908 08:30	11.1	11.1	11.1	91	9.6	10	21	112	0.0	1003.1	86	0.000	0.0
20100908 08:35	11.1	11.1	11.1	91	9.6	10	21	90	0.0	1003.0	85	0.000	0.0
20100908 08:40	11.0	11.0	11.0	91	9.6	10	19	90	0.0	1003.1	94	0.000	0.2
20100908 08:45	11.1	11.1	11.1	91	9.6	11	21	135	0.0	1003.4	87	0.000	0.3
20100908 08:50	11.1	11.1	11.1	91	9.7	8	21	112	0.0	1003.4	79	0.000	0.0
20100908 08:55	11.1	11.1	11.1	91	9.6	11	19	112	0.0	1003.6	87	0.000	0.5
20100908 09:00	11.1	11.1	11.1	90	9.5	10	21	135	0.0	1003.7	100	0.051	0.5
20100908 09:05	11.1	11.1	11.1	90	9.5	10	18	90	0.0	1003.5	103	0.000	0.5
20100908 09:10	11.2	11.2	11.2	90	9.6	6	11	90	0.0	1003.2	129	0.000	0.7
20100908 09:15	11.3	11.3	11.3	91	9.9	6	14	90	0.0	1003.2	136	0.000	0.7
20100908 09:20	11.4	11.4	11.4	90	9.9	8	16	90	0.0	1003.0	172	0.000	0.9
20100908 09:25	11.6	11.6	11.6	90	10.0	8	19	112	0.0	1003.2	185	0.000	1.0
20100908 09:30	11.7	11.7	11.7	90	10.1	10	19	135	0.0	1003.3	168	0.000	0.9
20100908 09:35	11.8	11.8	11.8	89	10.1	6	14	112	0.0	1003.5	167	0.000	0.9
20100908 09:40	12.0	12.0	12.0	89	10.2	5	11	112	0.0	1003.4	176	0.000	1.0
20100908 09:45	12.1	12.1	12.1	88	10.2	8	11	112	0.0	1003.4	171	0.000	1.0
20100908 09:50	12.3	12.3	12.3	88	10.3	10	21	112	0.0	1003.5	186	0.000	1.2
20100908 09:55	12.4	12.4	12.4	87	10.3	10	18	112	0.0	1003.6	204	0.000	1.3
20100908 10:00	12.4	12.4	12.4	87	10.3	5	14	158	0.0	1003.6	202	0.102	1.3
20100908 10:05	12.6	12.6	12.6	87	10.4	5	11	135	0.0	1003.7	216	0.000	1.4
20100908 10:10	12.7	12.7	12.7	86	10.4	6	16	112	0.0	1003.9	198	0.000	1.3
20100908 10:15	12.8	12.8	12.8	86	10.5	2	6	112	0.0	1004.0	160	0.000	1.1
20100908 10:20	12.8	12.8	12.8	86	10.5	3	11	112	0.0	1003.9	162	0.000	1.3
20100908 10:25	12.9	12.9	12.9	86	10.6	5	14	90	0.0	1003.7	234	0.000	1.7
20100908 10:30	13.0	13.0	13.0	86	10.7	6	14	112	0.0	1003.7	275	0.000	2.0
20100908 10:35	13.1	13.1	13.1	85	10.6	5	11	90	0.0	1003.8	254	0.000	1.9
20100908 10:40	13.2	13.2	13.2	85	10.7	8	16	90	0.0	1003.7	293	0.000	2.3
20100908 10:45	13.4	13.4	13.4	85	11.0	5	10	90	0.0	1003.9	328	0.000	2.5
20100908 10:50	13.7	13.7	13.7	84	11.1	5	11	135	0.0	1003.6	308	0.000	2.6
20100908 10:55	13.8	13.8	13.8	84	11.1	6	16	68	0.0	1003.9	259	0.000	2.1
20100908 11:00	13.8	13.8	13.8	83	10.9	6	13	68	0.0	1003.9	270	0.127	2.2
20100908 11:05	13.7	13.7	13.7	83	10.8	6	14	68	0.0	1004.2	292	0.000	2.3
20100908 11:10	13.7	13.7	13.7	84	11.0	5	8	68	0.0	1004.3	235	0.000	1.9
20100908 11:15	13.8	13.8	13.8	84	11.1	5	10	45	0.0	1004.4	263	0.000	2.2
20100908 11:20	13.9	13.9	13.9	84	11.2	3	6	135	0.0	1004.4	275	0.000	2.2
20100908 11:25	13.9	13.9	13.9	83	11.1	3	8	68	0.0	1004.3	334	0.000	2.7
20100908 11:30	14.2	14.2	14.2	83	11.3	2	5	112	0.0	1004.5	304	0.000	2.6
20100908 11:35	14.5	14.5	14.5	82	11.5	2	5	112	0.0	1004.4	287	0.000	2.4
20100908 11:40	14.7	14.7	14.7	81	11.5	2	5	112	0.0	1004.4	344	0.000	3.1
20100908 11:45	14.9	14.9	14.9	80	11.5	0	3	112	0.0	1004.5	302	0.000	2.6
20100908 11:50	15.0	15.0	15.0	80	11.6	3	10	112	0.0	1004.6	242	0.000	2.1
20100908 11:55	15.0	15.0	15.0	80	11.6	5	16	292	0.0	1004.5	235	0.000	2.2
20100908 12:00	15.0	15.0	15.0	80	11.6	2	6	292	0.0	1004.4	325	0.152	2.9
20100908 12:05	15.0	15.0	15.0	80	11.6	2	10	292	0.0	1004.6	268	0.000	2.5
20100908 12:10	15.1	15.1	15.1	80	11.6	6	11	292	0.0	1004.4	230	0.000	2.2
20100908 12:15	15.1	15.1	15.1	79	11.4	3	10	315	0.0	1004.3	171	0.000	1.8
20100908 12:20	15.0	15.0	15.0	80	11.6	6	10	0	0.0	1004.5	124	0.000	1.5
20100908 12:25	14.9	14.9	14.9	80	11.5	3	8	315	0.0	1004.5	138	0.000	1.6
20100908 12:30	14.8	14.8	14.8	81	11.6	3	8	292	0.0	1004.6	154	0.000	1.6
20100908 12:35	14.8	14.8	14.8	81	11.5	6	10	292	0.0	1004.6	159	0.000	1.7
20100908 12:40	14.8	14.8	14.8	81	11.5	3	10	292	0.0	1004.8	166	0.000	1.7
20100908 12:45	14.7	14.7	14.7	81	11.5	8	14	292	0.0	1004.7	140	0.000	1.5
20100908 12:50	14.7	14.7	14.7	81	11.4	6	10	270	0.0	1004.9	185	0.000	1.8
20100908 12:55	14.7	14.7	14.7	81	11.4	5	11	248	0.0	1004.8	231	0.000	2.3
20100908 13:00	14.7	14.7	14.7	81	11.5	5	8	225	0.0	1004.8	207	0.102	2.0
20100908 13:05	14.9	14.9	14.9	81	11.7	2	6	225	0.0	1004.8	177	0.000	1.8
20100908 13:10	15.0	15.0	15.0	81	11.8	2	5	225	0.0	1004.9	155	0.000	1.6
20100908 13:15	15.0	15.0	15.0	80	11.6	5	8	225	0.0	1005.0	135	0.000	1.4
20100908 13:20	15.0	15.0	15.0	80	11.6	3	8	248	0.0	1005.1	168	0.000	1.5
20100908 13:25	15.0	15.0	15.0	80	11.6	3	6	248	0.0	1005.0	254	0.000	2.2
20100908 13:30	15.0	15.0	15.0	80	11.6	3	8	315	0.0	1005.0	246	0.000	2.3
20100908 13:35	15.2	15.2	15.2	80	11.7	5	8	315	0.0	1005.1	210	0.000	2.0
20100908 13:40	15.2	15.2	15.2	80	11.8	3	10	292	0.0	1005.2	247	0.000	2.3
20100908 13:45	15.3	15.3	15.3	80	11.8	2	8	292	0.0	1005.3	191	0.000	1.8
20100908 13:50	15.3	15.3	15.3	80	11.8	5	8	315	0.0	1005.4	156	0.000	1.6
20100908 13:55	15.3	15.3	15.3	80	11.8	3	8	315	0.0	1005.4	145	0.000	1.5
20100908 14:00	15.3	15.3	15.3	80	11.8	3	8	292	0.0	1005.5	241	0.102	2.2
20100908 14:05	15.3	15.3	15.3	80	11.9	3	10	292	0.0	1005.5	267	0.000	2.4
20100908 14:10	15.4	15.4	15.4	80	12.0	5	13	315	0.0	1005.6	250	0.000	2.3
20100908 14:15	15.3	15.3	15.3	79	11.7	5	11	248	0.0	1005.5	215	0.000	2.1
20100908 14:20	15.4	15.4	15.4	80	12.0	2	8	270	0.0	1005.5	151	0.000	1.7
20100908 14:25	15.4	15.4	15.4	80	12.0	3	11	270	0.0	1005.4	137	0.000	1.6
20100908 14:30	15.4	15.4	15.4	80	12.0	5	14	292	0.0	1005.4	132	0.000	1.5
20100908 14:35	15.3	15.3	15.3	80	11.9	5	11	315	0.0	1005.3	154	0.000	1.6
20100908 14:40	15.3	15.3	15.3	80	11.8	6	14	315	0.0	1005.4	146	0.000	1.6
20100908 14:45	15.2	15.2	15.2	81	12.0	5	8	292	0.0	1005.6	140	0.000	1.4
20100908 14:50	15.2	15.2	15.2	81	11.9	6	11	292	0.0	1005.6	141	0.000	1.3
20100908 14:55	15.2	15.2	15.2	82	12.1	8	11	292	0.0	1005.6	151	0.000	1.3
20100908 15:00	15.1	15.1	15.1	81	11.9	5	11	292	0.0	1005.7	163	0.102	1.3
20100908 15:05	15.2	15.2	15.2	82	12.1	6	16	292	0.0	1005.8	144	0.000	1.2
20100908 15:10	15.2	15.2	15.2	82	12.2	6	10	292	0.0	1005.7	135	0.000	1.2
20100908 15:15	15.3	15.3	15.3	82	12.2	8	16	292	0.0	1005.7	152	0.000	1.3
20100908 15:20	15.3	15.3	15.3	82	12.3	6	16	292	0.0	1005.8	111	0.000	1.0
20100908 15:25	15.3	15.3	15.3	82	12.3	6	11	292	0.0	1005.8	114	0.000	1.0
20100908 15:30	15.3	15.3	15.3	82	12.2	8	16	292	0.0	1005.8	106	0.000	0.9
20100908 15:35	15.3	15.3	15.3	82	12.2	8	16	315	0.0	1005.7	126	0.000	1.1
20100908 15:40	15.3	15.3	15.3	82	12.2	6	11	292	0.0	1005.8	98	0.000	0.9
20100908 15:45	15.2	15.2	15.2	82	12.2	11	21	292	0.0	1005.8	73	0.000	0.7
20100908 15:50	15.1	15.1	15.1	83	12.2	11	16	292	0.0	1005.9	57	0.000	0.3
20100908 15:55	15.0	15.0	15.0	83	12.1	8	14	292	0.0	1005.9	45	0.000	0.0
20100908 16:00	15.0	15.0	15.0	83	12.1	11	21	292	0.0	1005.9	40	0.076	0.0
20100908 16:05	15.0	15.0	15.0	83	12.1	10	16	292	0.0	1005.9	50	0.000	0.2
20100908 16:10	14.9	14.9	14.9	83	12.1	11	21	270	0.0	1006.0	55	0.000	0.3
20100908 16:15	14.8	14.8	14.8	83	11.9	13	23	292	0.0	1006.0	59	0.000	0.5
20100908 16:20	14.7	14.7	14.7	83	11.9	11	18	292	0.0	1006.0	82	0.000	0.6
20100908 16:25	14.7	14.7	14.7	83	11.9	13	19	292	0.0	1006.1	86	0.000	0.6
20100908 16:30	14.7	14.7	14.7	83	11.9	11	19	292	0.0	1006.0	71	0.000	0.4
20100908 16:35	14.7	14.7	14.7	83	11.9	11	19	292	0.0	1006.0	80	0.000	0.6
20100908 16:40	14.7	14.7	14.7	83	11.9	10	23	292	0.0	1006.1	62	0.000	0.0
20100908 16:45	14.7	14.7	14.7	83	11.8	10	19	292	0.0	1006.3	51	0.000	0.0
20100908 16:50	14.7	14.7	14.7	83	11.8	10	24	292	0.0	1006.4	47	0.000	0.0
20100908 16:55	14.7	14.7	14.7	83	11.8	10	19	292	0.0	1006.4	70	0.000	0.3
20100908 17:00	14.7	14.7	14.7	83	11.8	10	19	270	0.0	1006.4	85	0.051	0.5
20100908 17:05	14.7	14.7	14.7	82	11.6	13	19	292	0.0	1006.3	105	0.000	0.6
20100908 17:10	14.8	14.8	14.8	83	11.9	10	18	292	0.0	1006.2	128	0.000	0.8
20100908 17:15	14.8	14.8	14.8	82	11.7	11	19	292	0.0	1006.2	128	0.000	0.7
20100908 17:20	14.8	14.8	14.8	82	11.8	13	24	292	0.0	1006.2	121	0.000	0.6
20100908 17:25	14.8	14.8	14.8	82	11.8	8	14	292	0.0	1006.3	114	0.000	0.6
20100908 17:30	14.8	14.8	14.8	82	11.8	11	24	315	0.0	1006.4	100	0.000	0.3
20100908 17:35	14.8	14.8	14.8	82	11.7	10	19	315	0.0	1006.7	83	0.000	0.0
20100908 17:40	14.7	14.7	14.7	82	11.7	11	16	292	0.0	1006.7	69	0.000	0.0
20100908 17:45	14.7	14.7	14.7	82	11.6	11	21	292	0.0	1006.9	59	0.000	0.0
20100908 17:50	14.6	14.6	14.6	82	11.5	11	18	292	0.0	1006.9	49	0.000	0.0
20100908 17:55	14.4	14.4	14.4	83	11.6	8	16	292	0.0	1007.0	44	0.000	0.0
20100908 18:00	14.4	14.4	14.4	83	11.5	10	18	292	0.0	1007.1	43	0.076	0.0
20100908 18:05	14.3	14.3	14.3	83	11.5	8	19	315	0.0	1007.1	46	0.000	0.0
20100908 18:10	14.3	14.3	14.3	85	11.8	10	18	292	0.0	1007.2	46	0.000	0.0
20100908 18:15	14.2	14.2	14.2	85	11.7	6	11	292	0.0	1007.4	46	0.000	0.0
20100908 18:20	14.1	14.1	14.1	86	11.7	10	18	315	0.2	1007.4	48	0.000	0.0
20100908 18:25	13.9	13.9	13.9	86	11.6	10	16	315	0.0	1007.3	44	0.000	0.0
20100908 18:30	13.8	13.8	13.8	87	11.7	6	14	315	0.0	1007.5	38	0.000	0.0
20100908 18:35	13.8	13.8	13.8	87	11.6	5	10	315	0.0	1007.6	37	0.000	0.0
20100908 18:40	13.7	13.7	13.7	88	11.8	8	16	315	0.0	1007.4	39	0.000	0.0
20100908 18:45	13.7	13.7	13.7	88	11.7	8	14	292	0.0	1007.5	34	0.000	0.0
20100908 18:50	13.6	13.6	13.6	89	11.8	6	14	292	0.0	1007.6	23	0.000	0.0
20100908 18:55	13.6	13.6	13.6	89	11.8	6	14	292	0.0	1007.8	20	0.000	0.0
20100908 19:00	13.5	13.5	13.5	89	11.7	8	16	292	0.0	1007.9	15	0.025	0.0
20100908 19:05	13.5	13.5	13.5	89	11.7	8	11	292	0.0	1007.9	9	0.000	0.0
20100908 19:10	13.4	13.4	13.4	89	11.7	8	14	270	0.0	1008.1	1	0.000	0.0
20100908 19:15	13.4	13.4	13.4	89	11.6	10	18	292	0.0	1008.3	0	0.000	0.0
20100908 19:20	13.3	13.3	13.3	89	11.6	10	18	292	0.2	1008.4	0	0.000	0.0
20100908 19:25	13.3	13.3	13.3	89	11.5	8	18	292	0.0	1008.5	0	0.000	0.0
20100908 19:30	13.3	13.3	13.3	90	11.7	8	14	270	0.2	1008.7	0	0.000	0.0
20100908 19:35	13.2	13.2	13.2	90	11.6	10	18	292	0.4	1008.8	0	0.000	0.0
20100908 19:40	13.1	13.1	13.1	90	11.5	11	23	292	0.2	1009.0	0	0.000	0.0
20100908 19:45	13.1	13.1	13.1	90	11.5	10	18	270	0.2	1009.0	0	0.000	0.0
20100908 19:50	13.0	13.0	13.0	91	11.6	11	18	270	0.0	1009.3	0	0.000	0.0
20100908 19:55	12.9	12.9	12.9	91	11.5	10	18	270	0.2	1009.3	0	0.000	0.0
20100908 20:00	12.9	12.9	12.9	91	11.5	10	18	270	0.0	1009.3	0	0.025	0.0
20100908 20:05	12.9	12.9	12.9	91	11.5	13	21	270	0.4	1009.3	0	0.000	0.0
20100908 20:10	12.8	12.8	12.8	91	11.4	11	19	315	0.4	1009.4	0	0.000	0.0
20100908 20:15	12.7	12.7	12.7	91	11.3	10	19	292	0.2	1009.5	0	0.000	0.0
20100908 20:20	12.7	12.7	12.7	91	11.3	10	18	292	0.2	1009.9	0	0.000	0.0
20100908 20:25	12.7	12.7	12.7	92	11.4	6	16	292	0.2	1010.0	0	0.000	0.0
20100908 20:30	12.7	12.7	12.7	92	11.5	5	10	292	0.0	1010.1	0	0.000	0.0
20100908 20:35	12.7	12.7	12.7	92	11.5	5	8	315	0.2	1010.1	0	0.000	0.0
20100908 20:40	12.7	12.7	12.7	92	11.4	5	8	292	0.0	1010.1	0	0.000	0.0
20100908 20:45	12.7	12.7	12.7	92	11.4	2	5	292	0.0	1010.1	0	0.000	0.0
20100908 20:50	12.7	12.7	12.7	92	11.4	3	6	292	0.0	1010.2	0	0.000	0.0
20100908 20:55	12.7	12.7	12.7	92	11.4	2	5	292	0.0	1010.2	0	0.000	0.0
20100908 21:00	12.7	12.7	12.7	92	11.4	3	6	292	0.0	1010.2	0	0.000	0.0
20100908 21:05	12.6	12.6	12.6	92	11.3	3	6	292	0.0	1010.2	0	0.000	0.0
20100908 21:10	12.6	12.6	12.6	92	11.3	3	5	292	0.0	1010.3	0	0.000	0.0
20100908 21:15	12.6	12.6	12.6	92	11.3	2	5	292	0.0	1010.4	0	0.000	0.0
20100908 21:20	12.6	12.6	12.6	92	11.3	2	5	292	0.0	1010.4	0	0.000	0.0
20100908 21:25	12.5	12.5	12.5	92	11.2	5	6	292	0.0	1010.5	0	0.000	0.0
20100908 21:30	12.5	12.5	12.5	92	11.2	3	6	292	0.0	1010.5	0	0.000	0.0
20100908 21:35	12.5	12.5	12.5	93	11.4	5	6	292	0.0	1010.5	0	0.000	0.0
20100908 21:40	12.5	12.5	12.5	93	11.4	5	6	292	0.0	1010.5	0	0.000	0.0
20100908 21:45	12.5	12.5	12.5	93	11.4	5	10	270	0.0	1010.7	0	0.000	0.0
20100908 21:50	12.5	12.5	12.5	93	11.4	5	8	270	0.0	1010.7	0	0.000	0.0
20100908 21:55	12.5	12.5	12.5	93	11.4	3	8	270	0.0	1010.8	0	0.000	0.0
20100908 22:00	12.5	12.5	12.5	93	11.4	5	8	270	0.0	1010.7	0	0.000	0.0
20100908 22:05	12.5	12.5	12.5	93	11.4	5	8	270	0.0	1010.8	0	0.000	0.0
20100908 22:10	12.5	12.5	12.5	93	11.4	5	6	270	0.0	1010.7	0	0.000	0.0
20100908 22:15	12.5	12.5	12.5	93	11.4	6	10	270	0.0	1010.7	0	0.000	0.0
20100908 22:20	12.4	12.4	12.4	93	11.3	5	8	270	0.0	1010.8	0	0.000	0.0
20100908 22:25	12.4	12.4	12.4	93	11.3	5	8	270	0.0	1010.9	0	0.000	0.0
20100908 22:30	12.4	12.4	12.4	93	11.3	3	6	270	0.0	1010.9	0	0.000	0.0
20100908 22:35	12.5	12.5	12.5	93	11.4	3	8	270	0.0	1010.8	0	0.000	0.0
20100908 22:40	12.5	12.5	12.5	93	11.4	3	6	270	0.0	1010.8	0	0.000	0.0
20100908 22:45	12.5	12.5	12.5	93	11.4	3	6	270	0.0	1010.9	0	0.000	0.0
20100908 22:50	12.5	12.5	12.5	93	11.4	3	6	270	0.0	1011.0	0	0.000	0.0
20100908 22:55	12.6	12.6	12.6	93	11.5	5	10	270	0.0	1011.0	0	0.000	0.0
20100908 23:00	12.6	12.6	12.6	93	11.5	6	11	248	0.2	1010.9	0	0.000	0.0
20100908 23:05	12.6	12.6	12.6	93	11.5	3	8	248	0.2	1010.9	0	0.000	0.0
20100908 23:10	12.6	12.6	12.6	93	11.5	5	10	225	0.0	1010.7	0	0.000	0.0
20100908 23:15	12.6	12.6	12.6	93	11.5	3	10	225	0.0	1010.5	0	0.000	0.0
20100908 23:20	12.6	12.6	12.6	93	11.5	2	6	225	0.0	1010.6	0	0.000	0.0
20100908 23:25	12.5	12.5	12.5	93	11.4	0	0	-100000	0.0	1010.6	0	0.000	0.0
20100908 23:30	12.5	12.5	12.5	93	11.4	3	10	225	0.0	1010.8	0	0.000	0.0
20100908 23:35	12.4	12.4	12.4	93	11.3	6	11	248	0.0	1011.1	0	0.000	0.0
20100908 23:40	12.3	12.3	12.3	93	11.2	6	16	248	0.0	1011.2	0	0.000	0.0
20100908 23:45	12.3	12.3	12.3	93	11.2	6	14	248	0.0	1011.2	0	0.000	0.0
20100908 23:50	12.3	12.3	12.3	93	11.2	6	11	248	0.0	1011.3	0	0.000	0.0
20100908 23:55	12.2	12.2	12.2	92	11.0	5	11	270	0.0	1011.3	0	0.000	0.0



Please note the license to use and transfer of this data:
http://creativecommons.org/licenses/by-nc-sa/3.0/deed.en

Bitte beachten sie die Lizenz zur Verwertung und Weitergabe der Daten:
http://creativecommons.org/licenses/by-nc-sa/3.0/deed.de

zurück zur Übersicht der Archivdaten (Monats und Tagesdaten)

Cookies helfen bei der Bereitstellung von Inhalten. Durch die Nutzung dieser Seiten erklärst du dich damit einverstanden, dass Cookies auf deinem Rechner gespeichert werden. Weitere Information